Time;durP1;ratioP1;P1;durP2;ratioP2;P2;SDS_P1;SDS_P2;PMS_P1;PMS_P2;Temp;Humidity;BMP_temperature;BMP_pressure;BME280_temperature;BME280_humidity;BME280_pressure;Samples;Min_cycle;Max_cycle;Signal;HPM_P1;HPM_P2
2023/01/20 04:53:36;;;;;;;4.03;3.55;;;-3.20;99.90;;;;;;4955839;29;20238;-75
2023/01/20 04:56:03;;;;;;;4.18;3.72;;;-3.30;99.90;;;;;;4956429;29;20208;-75
2023/01/20 04:58:30;;;;;;;3.80;3.13;;;-3.30;99.90;;;;;;4956406;29;20333;-75
2023/01/20 05:00:56;;;;;;;5.53;3.47;;;-3.30;99.90;;;;;;4956307;29;20228;-74
2023/01/20 05:03:23;;;;;;;3.58;3.17;;;-3.40;99.90;;;;;;4956232;29;20208;-73
2023/01/20 05:05:54;;;;;;;3.65;3.35;;;-3.50;99.90;;;;;;4956382;29;20698;-71
2023/01/20 05:08:20;;;;;;;3.80;3.50;;;-3.60;99.90;;;;;;4956242;29;20200;-72
2023/01/20 05:10:48;;;;;;;3.40;3.10;;;-3.70;99.90;;;;;;4955940;29;20228;-72
2023/01/20 05:13:15;;;;;;;3.65;3.35;;;-3.80;99.90;;;;;;4955834;29;20215;-72
2023/01/20 05:15:43;;;;;;;7.63;5.47;;;-3.90;99.90;;;;;;4955607;29;20703;-72
2023/01/20 05:18:10;;;;;;;3.83;3.53;;;-3.90;99.90;;;;;;4956439;29;20200;-73
2023/01/20 05:20:36;;;;;;;4.47;4.07;;;-4.00;99.90;;;;;;4955865;29;20247;-73
2023/01/20 05:23:03;;;;;;;6.80;4.88;;;-4.10;99.90;;;;;;4955800;29;20204;-73
2023/01/20 05:25:30;;;;;;;6.00;4.78;;;-4.10;99.90;;;;;;4955744;29;20291;-73
2023/01/20 05:27:58;;;;;;;4.03;3.72;;;-4.20;99.90;;;;;;4955744;29;20208;-73
2023/01/20 05:30:25;;;;;;;4.03;3.65;;;-4.20;99.90;;;;;;4956013;29;20227;-73
2023/01/20 05:32:52;;;;;;;3.83;3.50;;;-4.30;99.90;;;;;;4956468;29;20227;-73
2023/01/20 05:35:18;;;;;;;4.70;3.55;;;-4.30;99.90;;;;;;4957533;29;20667;-73
2023/01/20 05:37:45;;;;;;;4.53;4.13;;;-4.40;99.90;;;;;;4957100;29;20212;-73
2023/01/20 05:40:12;;;;;;;5.50;3.92;;;-4.40;99.90;;;;;;4955750;29;20231;-73
2023/01/20 05:42:39;;;;;;;5.82;4.32;;;-4.50;99.90;;;;;;4955656;29;20203;-73
2023/01/20 05:45:09;;;;;;;8.20;4.82;;;-4.50;99.90;;;;;;4955598;29;20211;-73
2023/01/20 05:47:35;;;;;;;8.80;5.53;;;-4.60;99.90;;;;;;4955397;29;20694;-72
2023/01/20 05:50:02;;;;;;;8.35;5.53;;;-4.60;99.90;;;;;;4955545;29;20219;-73
2023/01/20 05:52:29;;;;;;;5.05;3.97;;;-4.70;99.90;;;;;;4955188;29;20587;-73
2023/01/20 05:54:56;;;;;;;3.72;3.40;;;-4.70;99.90;;;;;;4955416;29;20278;-73
2023/01/20 05:57:24;;;;;;;4.63;3.58;;;-4.60;99.90;;;;;;4955562;29;20208;-73
2023/01/20 05:59:51;;;;;;;5.22;3.78;;;-4.60;99.90;;;;;;4955560;29;20213;-73
2023/01/20 06:02:19;;;;;;;6.80;4.22;;;-4.60;99.90;;;;;;4955456;28;20220;-73
2023/01/20 06:04:46;;;;;;;4.55;3.95;;;-4.60;99.90;;;;;;4958971;29;20215;-73
2023/01/20 06:07:14;;;;;;;6.90;4.70;;;-4.60;99.90;;;;;;4959483;29;20211;-73
2023/01/20 06:09:41;;;;;;;5.18;4.63;;;-4.50;99.90;;;;;;4959575;29;20620;-73
2023/01/20 06:12:08;;;;;;;7.25;5.30;;;-4.50;99.90;;;;;;4959264;29;20227;-74
2023/01/20 06:14:35;;;;;;;6.45;5.10;;;-4.50;99.90;;;;;;4959556;29;20207;-74
2023/01/20 06:17:01;;;;;;;7.13;4.85;;;-4.40;99.90;;;;;;4959398;29;20263;-74
2023/01/20 06:19:29;;;;;;;5.72;5.22;;;-4.40;99.90;;;;;;4959130;29;20705;-74
2023/01/20 06:21:56;;;;;;;5.95;5.35;;;-4.30;99.90;;;;;;4959140;29;20224;-74
2023/01/20 06:24:23;;;;;;;9.52;5.88;;;-4.30;99.90;;;;;;4958952;29;20208;-74
2023/01/20 06:26:50;;;;;;;11.40;5.68;;;-4.30;99.90;;;;;;4958886;29;20575;-74
2023/01/20 06:29:17;;;;;;;6.65;5.70;;;-4.30;99.90;;;;;;4958955;29;20672;-74
2023/01/20 06:31:44;;;;;;;6.25;5.65;;;-4.30;99.90;;;;;;4958912;29;20232;-74
2023/01/20 06:34:11;;;;;;;6.47;5.60;;;-4.30;99.90;;;;;;4959246;29;20231;-74
2023/01/20 06:36:39;;;;;;;9.05;5.95;;;-4.30;99.90;;;;;;4959102;29;20208;-74
2023/01/20 06:39:06;;;;;;;10.50;6.35;;;-4.30;99.90;;;;;;4959349;29;20204;-74
2023/01/20 06:41:33;;;;;;;8.60;5.85;;;-4.20;99.90;;;;;;4966631;29;20388;-74
2023/01/20 06:44:00;;;;;;;9.43;6.32;;;-4.30;99.90;;;;;;4968084;29;20208;-74
2023/01/20 06:46:26;;;;;;;6.55;5.30;;;-4.30;99.90;;;;;;4962728;29;20204;-74
2023/01/20 06:48:58;;;;;;;6.63;5.78;;;-4.30;99.90;;;;;;4961727;29;20231;-74
2023/01/20 06:51:26;;;;;;;7.32;5.72;;;-4.30;99.90;;;;;;4960355;29;20719;-74
2023/01/20 06:53:54;;;;;;;8.30;6.05;;;-4.30;99.90;;;;;;4967044;29;20231;-74
2023/01/20 06:56:21;;;;;;;7.35;6.20;;;-4.30;99.90;;;;;;4980421;29;20219;-73
2023/01/20 06:58:48;;;;;;;7.70;6.13;;;-4.30;99.90;;;;;;4975646;29;20259;-73
2023/01/20 07:01:18;;;;;;;13.00;8.35;;;-4.20;99.90;;;;;;4967849;29;20224;-74
2023/01/20 07:03:45;;;;;;;20.08;10.15;;;-4.20;99.90;;;;;;4961145;29;20208;-74
2023/01/20 07:06:16;;;;;;;10.13;7.07;;;-4.20;99.90;;;;;;4959075;29;20298;-74
2023/01/20 07:08:43;;;;;;;7.35;6.10;;;-4.20;99.90;;;;;;4958626;29;20552;-74
2023/01/20 07:11:11;;;;;;;9.50;6.63;;;-4.20;99.90;;;;;;4958552;29;20220;-74
2023/01/20 07:13:38;;;;;;;9.23;6.20;;;-4.10;99.90;;;;;;4958002;28;20278;-74
2023/01/20 07:16:05;;;;;;;7.97;6.78;;;-4.10;99.90;;;;;;4957989;29;20616;-72
2023/01/20 07:18:32;;;;;;;6.93;5.60;;;-4.10;99.90;;;;;;4958167;29;20208;-73
2023/01/20 07:20:59;;;;;;;7.55;5.93;;;-4.00;99.90;;;;;;4958075;29;20231;-73
2023/01/20 07:23:26;;;;;;;6.25;5.65;;;-4.00;99.90;;;;;;4958118;29;20206;-73
2023/01/20 07:25:59;;;;;;;6.63;5.85;;;-4.00;99.90;;;;;;4958080;29;20208;-73
2023/01/20 07:28:27;;;;;;;6.80;5.43;;;-3.90;99.90;;;;;;4957740;29;20571;-73
2023/01/20 07:30:54;;;;;;;7.00;6.30;;;-3.90;99.90;;;;;;4957602;29;20321;-73
2023/01/20 07:33:21;;;;;;;6.85;5.32;;;-3.90;99.90;;;;;;4957629;29;20751;-73
2023/01/20 07:35:52;;;;;;;6.18;5.40;;;-3.80;99.90;;;;;;4957883;29;20208;-73
2023/01/20 07:38:19;;;;;;;7.57;5.82;;;-3.80;99.90;;;;;;4957845;29;20275;-73
2023/01/20 07:40:46;;;;;;;6.88;6.18;;;-3.80;99.90;;;;;;4957778;29;20235;-73
2023/01/20 07:43:12;;;;;;;10.10;6.07;;;-3.80;99.90;;;;;;4957861;29;20250;-73
2023/01/20 07:45:41;;;;;;;7.78;6.10;;;-3.70;99.90;;;;;;4957749;29;20208;-73
2023/01/20 07:48:07;;;;;;;6.30;5.68;;;-3.70;99.90;;;;;;4957621;29;20204;-73
2023/01/20 07:50:34;;;;;;;8.80;5.90;;;-3.60;99.90;;;;;;4958270;29;20232;-73
2023/01/20 07:53:01;;;;;;;8.35;5.35;;;-3.60;99.90;;;;;;4957416;29;20231;-73
2023/01/20 07:55:28;;;;;;;8.00;5.68;;;-3.50;99.90;;;;;;4957579;29;20188;-73
2023/01/20 07:57:55;;;;;;;6.22;5.43;;;-3.50;99.90;;;;;;4957478;29;20259;-73
2023/01/20 08:00:22;;;;;;;7.72;5.63;;;-3.40;99.90;;;;;;4957576;29;20251;-74
2023/01/20 08:02:50;;;;;;;6.63;5.95;;;-3.40;99.90;;;;;;4957418;29;20200;-74
2023/01/20 08:05:18;;;;;;;8.95;7.18;;;-3.40;99.90;;;;;;4957601;29;20204;-74
2023/01/20 08:07:45;;;;;;;7.15;5.72;;;-3.30;99.90;;;;;;4956975;29;20704;-74
2023/01/20 08:10:11;;;;;;;7.78;6.25;;;-3.30;99.90;;;;;;4957239;29;20203;-74
2023/01/20 08:12:38;;;;;;;8.27;6.25;;;-3.20;99.90;;;;;;4957126;29;20247;-74
2023/01/20 08:15:06;;;;;;;9.68;7.03;;;-3.10;99.90;;;;;;4957103;29;20207;-74
2023/01/20 08:17:33;;;;;;;11.13;8.05;;;-3.10;99.90;;;;;;4957195;29;20215;-74
2023/01/20 08:20:01;;;;;;;10.70;7.38;;;-3.00;99.90;;;;;;4957088;29;20212;-74
2023/01/20 08:22:27;;;;;;;8.50;7.30;;;-3.00;99.90;;;;;;4957025;29;20200;-74
2023/01/20 08:24:54;;;;;;;8.43;6.95;;;-3.00;99.90;;;;;;4956538;28;20593;-74
2023/01/20 08:27:21;;;;;;;12.02;9.25;;;-2.90;99.90;;;;;;4956288;29;20215;-74
2023/01/20 08:29:48;;;;;;;17.65;10.98;;;-2.90;99.90;;;;;;4956693;29;20625;-74
2023/01/20 08:32:15;;;;;;;17.13;11.40;;;-2.80;99.90;;;;;;4956622;29;20711;-73
2023/01/20 08:34:42;;;;;;;16.05;11.20;;;-2.80;99.90;;;;;;4957011;29;20227;-73
2023/01/20 08:37:10;;;;;;;14.70;10.73;;;-2.80;99.90;;;;;;4956986;29;20215;-73
2023/01/20 08:39:36;;;;;;;13.45;10.13;;;-2.70;99.90;;;;;;4956763;29;20211;-73
2023/01/20 08:42:03;;;;;;;12.20;8.63;;;-2.50;99.90;;;;;;4956645;29;20224;-73
2023/01/20 08:44:30;;;;;;;12.23;8.63;;;-2.50;99.90;;;;;;4956620;29;20214;-73
2023/01/20 08:46:58;;;;;;;11.57;8.55;;;-2.40;99.90;;;;;;4956472;29;20200;-73
2023/01/20 08:49:25;;;;;;;13.43;9.60;;;-2.20;99.90;;;;;;4956606;29;20220;-73
2023/01/20 08:51:52;;;;;;;13.63;9.15;;;-2.10;99.90;;;;;;4956451;29;20220;-73
2023/01/20 08:54:21;;;;;;;12.45;9.13;;;-2.00;99.90;;;;;;4956367;29;20224;-73
2023/01/20 08:56:50;;;;;;;13.85;9.35;;;-2.00;99.90;;;;;;4956466;29;20220;-72
2023/01/20 08:59:17;;;;;;;14.02;8.95;;;-1.80;99.90;;;;;;4956353;29;20210;-71
2023/01/20 09:01:43;;;;;;;12.40;9.43;;;-1.70;99.90;;;;;;4956335;29;20227;-71
2023/01/20 09:04:11;;;;;;;14.38;8.98;;;-1.50;99.90;;;;;;4956370;29;20208;-72
2023/01/20 09:06:40;;;;;;;15.00;9.77;;;-1.30;99.90;;;;;;4956295;29;20203;-70
2023/01/20 09:09:06;;;;;;;14.70;9.90;;;-1.20;99.90;;;;;;4955885;29;20683;-71
2023/01/20 09:11:34;;;;;;;12.65;8.80;;;-1.10;99.90;;;;;;4956110;29;20235;-71
2023/01/20 09:14:02;;;;;;;13.35;9.95;;;-1.00;99.90;;;;;;4955810;29;20719;-71
2023/01/20 09:16:29;;;;;;;18.92;9.15;;;-0.90;99.90;;;;;;4956095;29;20200;-72
2023/01/20 09:18:56;;;;;;;12.35;8.82;;;-0.90;99.90;;;;;;4955983;29;20200;-71
2023/01/20 09:21:22;;;;;;;12.88;9.35;;;-0.70;99.90;;;;;;4955628;29;20600;-72
2023/01/20 09:23:49;;;;;;;15.70;9.25;;;-0.60;99.90;;;;;;4955953;29;20204;-72
2023/01/20 09:26:16;;;;;;;12.38;8.63;;;-0.60;99.90;;;;;;4955703;29;20583;-73
2023/01/20 09:28:46;;;;;;;13.25;9.30;;;-0.50;99.90;;;;;;4956056;29;20203;-72
2023/01/20 09:31:13;;;;;;;13.25;9.10;;;-0.40;99.90;;;;;;4955873;29;20227;-72
2023/01/20 09:33:40;;;;;;;12.93;9.70;;;-0.40;99.90;;;;;;4955488;29;20714;-72
2023/01/20 09:36:09;;;;;;;11.75;9.07;;;-0.40;99.90;;;;;;4955854;29;20639;-72
2023/01/20 09:44:28;;;;;;;10.93;9.23;;;-0.20;99.90;;;;;;4955864;29;20232;-73
2023/01/20 09:47:20;;;;;;;12.25;8.93;;;-0.20;99.90;;;;;;4956310;29;20192;-73
2023/01/20 09:53:14;;;;;;;14.63;9.75;;;-0.20;99.90;;;;;;4955591;29;20227;-73
2023/01/20 09:55:46;;;;;;;12.75;9.48;;;-0.20;99.90;;;;;;4955649;29;20239;-72
2023/01/20 09:58:24;;;;;;;13.15;10.18;;;-0.20;99.90;;;;;;4955663;29;20193;-74
2023/01/20 10:00:58;;;;;;;13.07;9.48;;;-0.10;99.90;;;;;;4955560;29;20223;-73
2023/01/20 10:03:29;;;;;;;12.68;9.77;;;-0.10;99.90;;;;;;4955530;29;20184;-73
2023/01/20 10:05:58;;;;;;;11.95;9.05;;;-0.10;99.90;;;;;;4955552;29;20203;-73
2023/01/20 10:08:32;;;;;;;12.63;9.35;;;-0.10;99.90;;;;;;4955438;29;20231;-73
2023/01/20 10:11:05;;;;;;;11.85;9.20;;;-0.10;99.90;;;;;;4955070;29;20734;-72
2023/01/20 10:13:37;;;;;;;11.73;8.88;;;-0.10;99.90;;;;;;4955343;29;20212;-72
2023/01/20 10:16:11;;;;;;;13.20;9.73;;;0.00;99.90;;;;;;4955190;29;20645;-72
2023/01/20 10:18:43;;;;;;;12.25;9.20;;;0.00;99.90;;;;;;4955637;29;20191;-72
2023/01/20 10:21:14;;;;;;;11.32;8.18;;;0.10;99.90;;;;;;4955335;29;20228;-73
2023/01/20 10:23:46;;;;;;;9.02;8.13;;;0.10;99.90;;;;;;4955485;29;20191;-73
2023/01/20 10:26:17;;;;;;;9.20;7.15;;;0.10;99.90;;;;;;4955193;29;20526;-73
2023/01/20 10:28:49;;;;;;;7.78;6.65;;;0.10;99.90;;;;;;4955389;29;20235;-72
2023/01/20 10:31:23;;;;;;;6.53;5.78;;;0.20;99.90;;;;;;4955218;29;20231;-72
2023/01/20 10:33:53;;;;;;;6.40;5.78;;;0.30;99.90;;;;;;4955254;29;20610;-73
2023/01/20 10:36:25;;;;;;;8.93;5.82;;;0.40;99.90;;;;;;4955311;29;20184;-73
2023/01/20 10:38:55;;;;;;;6.03;5.40;;;0.50;99.90;;;;;;4955291;29;20251;-73
2023/01/20 10:41:28;;;;;;;8.45;5.47;;;0.50;99.90;;;;;;4955425;29;20228;-73
2023/01/20 10:43:57;;;;;;;5.63;5.13;;;0.60;99.90;;;;;;4955316;29;20191;-74
2023/01/20 10:46:37;;;;;;;7.80;5.28;;;0.70;99.90;;;;;;4954874;29;20211;-74
2023/01/20 10:49:24;;;;;;;5.68;4.90;;;0.80;99.90;;;;;;4956231;28;20184;-72
2023/01/20 10:52:05;;;;;;;6.13;4.82;;;0.80;99.90;;;;;;4959138;29;20258;-72
2023/01/20 10:54:38;;;;;;;5.65;4.70;;;0.90;99.90;;;;;;4958305;29;20227;-73
2023/01/20 10:57:10;;;;;;;7.93;4.78;;;0.80;99.90;;;;;;4958621;29;20192;-72
2023/01/20 10:59:41;;;;;;;6.63;5.00;;;0.90;99.90;;;;;;4958560;29;20247;-72
2023/01/20 11:02:15;;;;;;;5.53;4.82;;;1.00;99.90;;;;;;4958300;29;20708;-72
2023/01/20 11:04:43;;;;;;;4.68;4.00;;;1.00;99.90;;;;;;4958546;29;20212;-72
2023/01/20 11:07:15;;;;;;;6.40;4.15;;;1.00;99.90;;;;;;4994183;23;20239;-77
2023/01/20 11:09:43;;;;;;;4.80;4.40;;;1.10;99.90;;;;;;4982123;28;20187;-75
2023/01/20 11:12:15;;;;;;;9.65;6.57;;;1.20;99.90;;;;;;4982631;28;20204;-76
2023/01/20 11:14:43;;;;;;;6.57;5.55;;;1.10;99.90;;;;;;4983953;28;20207;-76
2023/01/20 11:17:19;;;;;;;7.00;4.63;;;1.10;99.90;;;;;;4979849;28;20234;-76
2023/01/20 11:19:55;;;;;;;8.30;4.22;;;1.20;99.90;;;;;;4980077;28;20195;-77
2023/01/20 11:22:30;;;;;;;3.90;3.67;;;1.20;99.90;;;;;;4982664;28;20203;-75
2023/01/20 11:24:59;;;;;;;6.25;3.15;;;1.30;99.90;;;;;;4983879;28;20180;-77
2023/01/20 11:27:29;;;;;;;4.72;3.50;;;1.40;99.90;;;;;;4981773;28;20227;-77
2023/01/20 11:29:59;;;;;;;4.55;3.45;;;1.40;99.90;;;;;;4981789;28;20191;-76
2023/01/20 11:32:38;;;;;;;4.15;3.67;;;1.40;99.90;;;;;;4977539;28;20551;-77
2023/01/20 11:35:21;;;;;;;3.95;3.45;;;1.40;99.90;;;;;;4977413;28;20218;-76
2023/01/20 11:37:48;;;;;;;3.65;3.35;;;1.40;99.90;;;;;;4977662;28;20354;-76
2023/01/20 11:40:21;;;;;;;4.07;3.78;;;1.40;99.90;;;;;;4977034;28;20206;-77
2023/01/20 11:42:49;;;;;;;3.53;3.22;;;1.40;99.90;;;;;;4979391;28;20667;-78
2023/01/20 11:45:33;;;;;;;4.13;3.03;;;1.40;99.90;;;;;;4978202;28;20199;-76
2023/01/20 11:48:15;;;;;;;5.00;3.83;;;1.40;99.90;;;;;;4976324;28;20223;-77
2023/01/20 11:50:49;;;;;;;3.05;2.80;;;1.30;99.90;;;;;;4977245;28;20306;-76
2023/01/20 11:53:21;;;;;;;4.07;3.05;;;1.30;99.90;;;;;;4977439;28;20192;-76
2023/01/20 11:55:53;;;;;;;3.20;2.97;;;1.30;99.90;;;;;;4977496;28;20694;-78
2023/01/20 11:58:23;;;;;;;3.22;3.03;;;1.30;99.90;;;;;;4978318;28;20207;-76
2023/01/20 12:00:52;;;;;;;3.78;3.47;;;1.20;99.90;;;;;;4975999;28;20207;-77
2023/01/20 12:03:45;;;;;;;3.85;3.55;;;1.30;99.90;;;;;;4977514;28;20570;-76
2023/01/20 12:06:17;;;;;;;4.40;3.70;;;1.30;99.90;;;;;;4976756;28;20242;-77
2023/01/20 12:08:48;;;;;;;3.92;3.72;;;1.20;99.90;;;;;;4977100;28;20187;-77
2023/01/20 12:11:20;;;;;;;5.85;3.78;;;1.20;99.90;;;;;;4977674;28;20188;-77
2023/01/20 12:16:47;;;;;;;5.95;3.38;;;0.90;99.90;;;;;;4976680;28;20222;-77
2023/01/20 12:19:20;;;;;;;4.60;4.28;;;0.80;99.90;;;;;;4977202;28;20203;-77
2023/01/20 12:21:50;;;;;;;3.75;3.47;;;0.80;99.90;;;;;;4976876;28;20195;-78
2023/01/20 12:24:23;;;;;;;6.45;3.33;;;0.70;99.90;;;;;;4977142;28;20196;-79
2023/01/20 12:26:50;;;;;;;5.13;3.50;;;0.70;99.90;;;;;;4977466;28;20222;-79
2023/01/20 12:29:21;;;;;;;3.65;3.35;;;0.70;99.90;;;;;;4981743;28;20203;-79
2023/01/20 12:31:48;;;;;;;4.90;3.53;;;0.70;99.90;;;;;;4983223;28;20203;-79
2023/01/20 12:34:23;;;;;;;4.05;3.65;;;0.70;99.90;;;;;;4980667;28;20223;-79
2023/01/20 12:37:02;;;;;;;3.58;3.28;;;0.70;99.90;;;;;;4980063;28;20223;-79
2023/01/20 12:39:49;;;;;;;4.28;2.72;;;0.70;99.90;;;;;;4980028;28;20215;-79
2023/01/20 12:42:56;;;;;;;2.67;2.47;;;0.70;99.90;;;;;;4980752;28;20192;-79
2023/01/20 12:45:33;;;;;;;2.92;2.75;;;0.70;99.90;;;;;;4979383;28;20229;-79
2023/01/20 12:48:14;;;;;;;3.45;2.83;;;0.80;99.90;;;;;;4980087;28;20219;-79
2023/01/20 12:50:56;;;;;;;3.65;3.35;;;0.80;99.90;;;;;;4980019;28;20192;-80
2023/01/20 12:53:55;;;;;;;9.25;4.78;;;0.90;99.90;;;;;;4975795;28;20670;-77
2023/01/20 12:56:31;;;;;;;3.50;3.22;;;1.00;99.90;;;;;;4975998;28;20227;-80
2023/01/20 12:59:07;;;;;;;2.88;2.55;;;1.00;99.90;;;;;;4977161;28;20191;-77
2023/01/20 13:01:43;;;;;;;5.82;3.05;;;0.90;99.90;;;;;;4978780;28;20190;-79
2023/01/20 13:04:48;;;;;;;2.95;2.75;;;0.80;99.90;;;;;;4980108;28;20188;-79
2023/01/20 13:07:37;;;;;;;7.07;5.40;;;0.50;99.90;;;;;;4981342;28;20250;-79
2023/01/20 13:10:29;;;;;;;10.10;7.00;;;0.40;99.90;;;;;;4982345;28;20638;-80
2023/01/20 13:13:00;;;;;;;3.60;3.17;;;0.30;99.90;;;;;;4979622;28;20203;-79
2023/01/20 13:15:30;;;;;;;5.60;3.67;;;0.30;99.90;;;;;;4981646;28;20212;-79
2023/01/20 13:18:15;;;;;;;3.10;2.85;;;0.30;99.90;;;;;;4978923;28;20270;-79
2023/01/20 13:20:45;;;;;;;2.80;2.67;;;0.30;99.90;;;;;;4982248;28;20195;-79
2023/01/20 13:23:20;;;;;;;6.28;4.50;;;0.30;99.90;;;;;;4981779;28;20218;-79
2023/01/20 13:25:48;;;;;;;3.50;2.72;;;0.30;99.90;;;;;;4982340;28;20270;-80
2023/01/20 13:28:21;;;;;;;2.33;2.17;;;0.20;99.90;;;;;;4981191;28;20239;-80
2023/01/20 13:30:52;;;;;;;4.10;2.45;;;0.10;99.90;;;;;;4982970;28;20534;-80
2023/01/20 13:33:32;;;;;;;2.60;2.22;;;0.00;99.90;;;;;;4983118;28;20295;-80
2023/01/20 13:36:14;;;;;;;3.88;1.80;;;-0.20;99.90;;;;;;4982060;28;20262;-80
2023/01/20 13:38:42;;;;;;;3.33;2.08;;;-0.30;99.90;;;;;;4984010;28;20587;-81
2023/01/20 13:41:33;;;;;;;4.43;2.38;;;-0.40;99.90;;;;;;4982434;28;20551;-78
2023/01/20 13:44:21;;;;;;;1.75;1.65;;;-0.40;99.90;;;;;;4981020;28;20290;-78
2023/01/20 13:46:49;;;;;;;2.58;2.17;;;-0.40;99.90;;;;;;4980582;28;20277;-77
2023/01/20 13:49:29;;;;;;;5.13;2.08;;;-0.40;99.90;;;;;;4980269;28;20207;-77
2023/01/20 13:51:56;;;;;;;3.78;1.90;;;-0.40;99.90;;;;;;4980295;28;20223;-78
2023/01/20 13:54:47;;;;;;;2.40;2.20;;;-0.40;99.90;;;;;;4981566;28;20219;-78
2023/01/20 13:57:36;;;;;;;2.72;2.08;;;-0.40;99.90;;;;;;4980904;28;20227;-78
2023/01/20 14:00:15;;;;;;;4.05;2.03;;;-0.40;99.90;;;;;;4980757;28;20535;-78
2023/01/20 14:02:42;;;;;;;2.13;1.98;;;-0.30;99.90;;;;;;4977786;28;20219;-80
2023/01/20 14:05:27;;;;;;;3.47;1.63;;;-0.30;99.90;;;;;;4977476;28;20202;-79
2023/01/20 14:07:54;;;;;;;2.10;2.00;;;-0.30;99.90;;;;;;4978159;28;20231;-79
2023/01/20 14:10:21;;;;;;;2.08;1.60;;;-0.30;99.90;;;;;;4979336;28;20210;-80
2023/01/20 14:12:48;;;;;;;5.03;2.05;;;-0.20;99.90;;;;;;4980102;28;20207;-80
2023/01/20 14:15:35;;;;;;;2.08;1.98;;;-0.10;99.90;;;;;;4978630;28;20317;-80
2023/01/20 14:18:02;;;;;;;1.95;1.85;;;-0.10;99.90;;;;;;4979323;28;20592;-80
2023/01/20 14:20:30;;;;;;;2.05;1.95;;;0.00;99.90;;;;;;4980854;28;20200;-78
2023/01/20 14:23:29;;;;;;;2.67;2.10;;;0.00;99.90;;;;;;4979973;28;20207;-79
2023/01/20 14:26:01;;;;;;;2.78;2.20;;;0.00;99.90;;;;;;4982790;28;20184;-79
2023/01/20 14:28:28;;;;;;;3.40;2.10;;;-0.10;99.90;;;;;;4984991;28;20204;-79
2023/01/20 14:31:28;;;;;;;2.78;2.22;;;-0.10;99.90;;;;;;4983314;28;20207;-80
2023/01/20 14:33:58;;;;;;;4.68;2.00;;;-0.10;99.90;;;;;;4980844;28;20191;-79
2023/01/20 14:36:29;;;;;;;1.77;1.60;;;-0.20;99.90;;;;;;4982009;28;20702;-79
2023/01/20 14:38:57;;;;;;;2.13;1.88;;;-0.30;99.90;;;;;;4983556;28;20184;-80
2023/01/20 14:41:29;;;;;;;2.40;2.20;;;-0.40;99.90;;;;;;4982589;28;20199;-79
2023/01/20 14:43:56;;;;;;;3.70;3.35;;;-0.50;99.90;;;;;;4982063;28;20176;-79
2023/01/20 14:46:26;;;;;;;8.27;3.60;;;-0.50;99.90;;;;;;4982510;28;20227;-80
2023/01/20 14:48:54;;;;;;;2.28;2.13;;;-0.60;99.90;;;;;;4982678;28;20214;-80
2023/01/20 14:51:22;;;;;;;3.47;3.10;;;-0.70;99.90;;;;;;4982926;28;20208;-81
2023/01/20 14:54:22;;;;;;;2.05;1.95;;;-0.70;99.90;;;;;;4982488;28;20210;-80
2023/01/20 14:56:49;;;;;;;3.10;2.22;;;-0.80;99.90;;;;;;4981471;28;20220;-80
2023/01/20 14:59:19;;;;;;;5.20;4.10;;;-0.80;99.90;;;;;;4981389;28;20286;-79
2023/01/20 15:01:55;;;;;;;8.88;5.35;;;-0.80;99.90;;;;;;4981539;28;20183;-78
2023/01/20 15:04:22;;;;;;;6.47;4.25;;;-0.90;99.90;;;;;;4982834;28;20190;-78
2023/01/20 15:06:54;;;;;;;2.85;2.65;;;-0.90;99.90;;;;;;4992048;28;20231;-79
2023/01/20 15:09:29;;;;;;;2.13;2.03;;;-0.90;99.90;;;;;;5001176;28;20635;-78
2023/01/20 15:12:32;;;;;;;1.90;1.88;;;-1.00;99.90;;;;;;4983885;28;20206;-80
2023/01/20 15:15:15;;;;;;;2.50;2.30;;;-0.90;99.90;;;;;;4981582;28;20227;-78
2023/01/20 15:18:05;;;;;;;2.10;1.95;;;-1.00;99.90;;;;;;4987481;28;20226;-78
2023/01/20 15:20:33;;;;;;;2.42;2.22;;;-1.00;99.90;;;;;;4993327;28;20194;-78
2023/01/20 15:23:00;;;;;;;2.70;2.00;;;-1.00;99.90;;;;;;4992810;28;20205;-78
2023/01/20 15:25:28;;;;;;;2.20;2.10;;;-1.00;99.90;;;;;;4991277;28;20203;-78
2023/01/20 15:27:56;;;;;;;2.50;2.30;;;-1.00;99.90;;;;;;4992795;28;20234;-78
2023/01/20 15:30:26;;;;;;;2.72;1.65;;;-1.10;99.90;;;;;;4982378;28;20574;-78
2023/01/20 15:32:54;;;;;;;2.70;2.00;;;-1.10;99.90;;;;;;4983632;28;20195;-79
2023/01/20 15:35:25;;;;;;;5.70;3.55;;;-1.10;99.90;;;;;;4977403;28;20231;-77
2023/01/20 15:37:54;;;;;;;2.78;2.58;;;-1.20;99.90;;;;;;4978269;28;20262;-78
2023/01/20 15:40:22;;;;;;;2.45;2.30;;;-1.20;99.90;;;;;;4982726;28;20203;-78
2023/01/20 15:42:52;;;;;;;1.60;1.55;;;-1.20;99.90;;;;;;4982588;28;20207;-79
2023/01/20 15:45:18;;;;;;;2.17;1.98;;;-1.30;99.90;;;;;;4978377;28;20203;-74
2023/01/20 15:47:46;;;;;;;2.05;1.95;;;-1.30;99.90;;;;;;4981106;28;20234;-78
2023/01/20 15:50:16;;;;;;;1.85;1.75;;;-1.30;99.90;;;;;;4984610;28;20214;-78
2023/01/20 15:52:44;;;;;;;2.05;1.90;;;-1.30;99.90;;;;;;4980645;28;20203;-79
2023/01/20 15:55:15;;;;;;;1.70;1.60;;;-1.30;99.90;;;;;;4980719;28;20215;-80
2023/01/20 15:57:42;;;;;;;2.35;2.15;;;-1.30;99.90;;;;;;4980785;28;20227;-79
2023/01/20 16:00:16;;;;;;;2.35;2.20;;;-1.30;99.90;;;;;;4978850;28;20214;-77
2023/01/20 16:02:43;;;;;;;2.30;2.20;;;-1.40;99.90;;;;;;4977657;28;20187;-78
2023/01/20 16:05:11;;;;;;;2.25;1.95;;;-1.50;99.90;;;;;;4979443;28;20203;-78
2023/01/20 16:07:39;;;;;;;2.00;1.90;;;-1.50;99.90;;;;;;4981887;28;20235;-81
2023/01/20 16:10:13;;;;;;;2.13;2.03;;;-1.50;99.90;;;;;;4982990;28;20277;-80
2023/01/20 16:12:40;;;;;;;3.35;3.05;;;-1.60;99.90;;;;;;4981645;28;20191;-78
2023/01/20 16:15:09;;;;;;;3.05;2.75;;;-1.60;99.90;;;;;;4980436;28;20212;-80
2023/01/20 16:17:39;;;;;;;3.95;3.40;;;-1.70;99.90;;;;;;4983546;28;20230;-80
2023/01/20 16:20:18;;;;;;;4.63;3.60;;;-1.80;99.90;;;;;;4965360;28;20210;-80
2023/01/20 16:22:45;;;;;;;6.95;3.03;;;-1.80;99.90;;;;;;4982924;28;20194;-80
2023/01/20 16:25:13;;;;;;;6.45;3.03;;;-1.90;99.90;;;;;;4982664;28;20207;-81
2023/01/20 16:27:40;;;;;;;4.45;2.88;;;-2.00;99.90;;;;;;4981230;28;20236;-80
2023/01/20 16:30:10;;;;;;;2.47;2.38;;;-2.10;99.90;;;;;;4981436;28;20291;-80
2023/01/20 16:32:37;;;;;;;3.00;2.75;;;-2.10;99.90;;;;;;4981868;28;20263;-78
2023/01/20 16:35:05;;;;;;;5.13;4.00;;;-2.20;99.90;;;;;;4982775;28;20317;-81
2023/01/20 16:37:32;;;;;;;5.80;4.00;;;-2.30;99.90;;;;;;4981611;28;20228;-81
2023/01/20 16:40:00;;;;;;;4.00;3.53;;;-2.40;99.90;;;;;;4982851;28;20267;-80
2023/01/20 16:42:28;;;;;;;4.03;3.72;;;-2.50;99.90;;;;;;4981631;28;20183;-80
2023/01/20 16:44:56;;;;;;;7.03;4.22;;;-2.60;99.90;;;;;;4980935;28;20621;-80
2023/01/20 16:47:23;;;;;;;4.53;3.05;;;-2.70;99.90;;;;;;4981758;28;20234;-81
2023/01/20 16:49:50;;;;;;;2.75;2.65;;;-2.70;99.90;;;;;;4983084;28;20203;-80
2023/01/20 16:52:16;;;;;;;4.13;2.80;;;-2.80;99.90;;;;;;4982168;28;20208;-80
2023/01/20 16:54:43;;;;;;;4.03;3.10;;;-2.90;99.90;;;;;;4981349;28;20203;-80
2023/01/20 16:57:10;;;;;;;4.07;2.67;;;-3.00;99.90;;;;;;4982923;28;20219;-81
2023/01/20 16:59:38;;;;;;;2.97;2.75;;;-3.10;99.90;;;;;;4982983;28;20232;-80
2023/01/20 17:02:05;;;;;;;3.22;2.85;;;-3.20;99.90;;;;;;4984793;28;20222;-80
2023/01/20 17:04:33;;;;;;;2.92;2.72;;;-3.20;99.90;;;;;;4977400;28;20203;-77
2023/01/20 17:06:59;;;;;;;2.75;2.53;;;-3.40;99.90;;;;;;4975147;28;20281;-76
2023/01/20 17:09:26;;;;;;;3.30;2.88;;;-3.40;99.90;;;;;;4975385;28;20746;-76
2023/01/20 17:11:53;;;;;;;3.85;2.97;;;-3.50;99.90;;;;;;4975533;28;20211;-76
2023/01/20 17:14:19;;;;;;;4.95;3.20;;;-3.50;99.90;;;;;;4975443;28;20203;-76
2023/01/20 17:16:47;;;;;;;2.40;2.20;;;-3.60;99.90;;;;;;4974820;28;20586;-77
2023/01/20 17:19:14;;;;;;;2.55;2.30;;;-3.60;99.90;;;;;;4975039;28;20671;-76
2023/01/20 17:21:41;;;;;;;3.30;3.10;;;-3.70;99.90;;;;;;4975543;28;20259;-77
2023/01/20 17:24:10;;;;;;;2.15;2.15;;;-3.70;99.90;;;;;;4975470;28;20184;-76
2023/01/20 17:26:36;;;;;;;2.50;2.20;;;-3.70;99.90;;;;;;4974968;28;20725;-76
2023/01/20 17:29:05;;;;;;;13.15;5.43;;;-3.80;99.90;;;;;;4975222;28;20663;-76
2023/01/20 17:31:35;;;;;;;6.90;4.70;;;-3.90;99.90;;;;;;4975657;28;20258;-78
2023/01/20 17:34:03;;;;;;;5.15;4.70;;;-3.90;99.90;;;;;;4977408;28;20231;-77
2023/01/20 17:36:33;;;;;;;5.63;4.55;;;-4.00;99.90;;;;;;4977853;28;20257;-78
2023/01/20 17:39:00;;;;;;;5.25;4.75;;;-4.00;99.90;;;;;;4975274;28;20250;-77
2023/01/20 17:41:26;;;;;;;5.90;5.43;;;-4.00;99.90;;;;;;4975518;28;20206;-77
2023/01/20 17:43:53;;;;;;;5.30;5.00;;;-4.10;99.90;;;;;;4975305;28;20207;-77
2023/01/20 17:46:21;;;;;;;4.80;4.50;;;-4.10;99.90;;;;;;4975426;28;20225;-78
2023/01/20 17:48:48;;;;;;;3.40;3.20;;;-4.20;99.90;;;;;;4975813;28;20192;-78
2023/01/20 17:51:19;;;;;;;3.47;3.22;;;-4.30;99.90;;;;;;4975445;28;20219;-77
2023/01/20 17:53:45;;;;;;;3.47;3.28;;;-4.30;99.90;;;;;;4975487;28;20187;-77
2023/01/20 17:56:13;;;;;;;4.78;3.90;;;-4.40;99.90;;;;;;4975259;28;20234;-77
2023/01/20 17:58:41;;;;;;;5.32;4.82;;;-4.50;99.90;;;;;;4978909;28;20214;-79
2023/01/20 18:01:12;;;;;;;5.50;4.55;;;-4.50;99.90;;;;;;4976397;28;20203;-78
2023/01/20 18:03:39;;;;;;;12.30;8.10;;;-4.50;99.90;;;;;;4975184;28;20199;-76
2023/01/20 18:06:07;;;;;;;14.88;7.57;;;-4.60;99.90;;;;;;4975194;28;20207;-78
2023/01/20 18:08:37;;;;;;;9.57;7.70;;;-4.60;99.90;;;;;;4975573;28;20184;-78
2023/01/20 18:11:04;;;;;;;9.07;6.68;;;-4.60;99.90;;;;;;4975216;28;20207;-77